OERF

Rafha Domestic Airport

Rafha, Saudi Arabia
TAF OERF 202300Z 2100/2206 29006G16KT 7000 FEW040 SCT100 TEMPO 2107/2118 3000 DU BLDU FEW035CB SCT040
Issued Valid From Valid To
Apr-20 @ 23:00 UTC
(5 hours ago)
Apr-21 @ 00:00 UTC
(4 hours ago)
Apr-22 @ 06:00 UTC
(-1 days ago)
Apr-21 @ 00:00 to Apr-22 @ 06:00
TAF OERF 202300Z 2100/2206 29006G16KT 7000 FEW040 SCT100
Wind Visibility Clouds
290° at 6 knots
 Gusting to 16 knots
7,001 meters
  • Few at 4,000' AGL
  • Scattered at 10,000' AGL
Temporary Apr-21 @ 07:00 to Apr-21 @ 18:00
TEMPO 2107/2118 3000 DU BLDU FEW035CB SCT040
Visibility Clouds Conditions
2,993 meters
  • Few at 3,500' AGL
  • Scattered at 4,000' AGL
  • Dust
  • Blowing
  • Dust
TAF OERF 202300Z 2100/2206 29006G16KT 7000 FEW040 SCT100 TEMPO 2107/2118 3000 DU BLDU FEW035CB SCT040
Issued Apr-20 @ 23:00 UTC
(5 hours ago)
Valid From Apr-21 @ 00:00 UTC
(4 hours ago)
Valid To Apr-22 @ 06:00 UTC
(-1 days ago)
Apr-21 @ 00:00 - Apr-22 @ 06:00
Wind Visibility
290° at 6 knots
 Gusting to 16 knots
7,001 meters
Clouds
  • Few at 4,000' AGL
  • Scattered at 10,000' AGL
Temporary Apr-21 @ 07:00 - Apr-21 @ 18:00
Clouds
  • Few at 3,500' AGL
  • Scattered at 4,000' AGL
Conditions
  • Dust
  • Blowing
  • Dust